Time;durP1;ratioP1;P1;durP2;ratioP2;P2;SDS_P1;SDS_P2;PMS_P1;PMS_P2;Temp;Humidity;BMP_temperature;BMP_pressure;BME280_temperature;BME280_humidity;BME280_pressure;Samples;Min_cycle;Max_cycle;Signal;HPM_P1;HPM_P2
2023/04/29 00:00:52;;;;;;;14.13;9.27;;;12.50;99.90;;;;;;5032055;28;20172;-64
2023/04/29 00:03:18;;;;;;;12.93;9.27;;;12.50;99.90;;;;;;5032086;28;20183;-64
2023/04/29 00:05:44;;;;;;;9.80;8.83;;;12.50;99.90;;;;;;5032034;28;20580;-63
2023/04/29 00:08:10;;;;;;;12.23;8.83;;;12.50;99.90;;;;;;5031816;28;20214;-65
2023/04/29 00:10:36;;;;;;;9.00;8.10;;;12.50;99.90;;;;;;5031847;28;20179;-65
2023/04/29 00:13:02;;;;;;;10.83;9.63;;;12.50;99.90;;;;;;5031395;28;20267;-63
2023/04/29 00:15:28;;;;;;;9.80;8.43;;;12.50;99.90;;;;;;5031700;28;20639;-65
2023/04/29 00:17:54;;;;;;;11.00;8.73;;;12.40;99.90;;;;;;5031900;28;20270;-64
2023/04/29 00:20:20;;;;;;;13.90;8.80;;;12.40;99.90;;;;;;5031372;28;20696;-64
2023/04/29 00:22:46;;;;;;;12.67;10.07;;;12.40;99.90;;;;;;5032001;28;20184;-65
2023/04/29 00:25:11;;;;;;;12.43;9.00;;;12.40;99.90;;;;;;5031621;28;20661;-64
2023/04/29 00:27:38;;;;;;;10.10;8.80;;;12.40;99.90;;;;;;5031167;28;20199;-64
2023/04/29 00:30:05;;;;;;;16.60;11.03;;;12.40;99.90;;;;;;5030873;28;20175;-64
2023/04/29 00:32:31;;;;;;;10.47;8.90;;;12.30;99.90;;;;;;5031478;28;20172;-64
2023/04/29 00:34:57;;;;;;;13.20;9.73;;;12.30;99.90;;;;;;5031708;28;20186;-64
2023/04/29 00:37:22;;;;;;;10.70;9.70;;;12.40;99.90;;;;;;5031584;28;20266;-64
2023/04/29 00:39:48;;;;;;;11.13;9.63;;;12.40;99.90;;;;;;5031111;28;20223;-64
2023/04/29 00:42:13;;;;;;;13.10;9.77;;;12.40;99.90;;;;;;5031191;28;20187;-63
2023/04/29 00:44:39;;;;;;;14.20;10.40;;;12.40;99.90;;;;;;5031217;28;20254;-64
2023/04/29 00:47:04;;;;;;;23.30;11.80;;;12.40;99.90;;;;;;5031736;28;20677;-64
2023/04/29 00:49:30;;;;;;;11.83;9.40;;;12.30;99.90;;;;;;5030870;28;20203;-64
2023/04/29 00:51:58;;;;;;;16.07;10.73;;;12.20;99.90;;;;;;5031302;28;20172;-64
2023/04/29 00:54:24;;;;;;;13.23;10.30;;;12.20;99.90;;;;;;5031236;28;20195;-64
2023/04/29 00:56:50;;;;;;;14.20;10.23;;;12.20;99.90;;;;;;5031439;28;20179;-64
2023/04/29 00:59:16;;;;;;;11.93;10.03;;;12.20;99.90;;;;;;5030911;28;20245;-64
2023/04/29 01:01:43;;;;;;;19.10;11.47;;;12.10;99.90;;;;;;5031288;28;20214;-64
2023/04/29 01:04:09;;;;;;;18.23;11.17;;;12.10;99.90;;;;;;5030849;28;20203;-64
2023/04/29 01:07:15;;;;;;;15.07;10.90;;;12.10;99.90;;;;;;5031048;28;20187;-64
2023/04/29 01:10:07;;;;;;;14.93;11.33;;;12.00;99.90;;;;;;5030825;28;20294;-63
2023/04/29 01:12:47;;;;;;;16.80;11.87;;;12.00;99.90;;;;;;5031190;28;20172;-64
2023/04/29 01:15:32;;;;;;;18.47;11.67;;;12.00;99.90;;;;;;5031198;28;20201;-64
2023/04/29 01:18:18;;;;;;;19.97;13.33;;;12.00;99.90;;;;;;5031116;28;20279;-63
2023/04/29 01:20:44;;;;;;;17.77;11.87;;;12.00;99.90;;;;;;5030694;28;20588;-64
2023/04/29 01:23:11;;;;;;;20.67;12.87;;;11.90;99.90;;;;;;5031192;28;20186;-63
2023/04/29 01:25:37;;;;;;;16.30;13.23;;;11.90;99.90;;;;;;5030804;28;20203;-64
2023/04/29 01:28:21;;;;;;;23.17;14.67;;;11.80;99.90;;;;;;5030663;28;20206;-64
2023/04/29 01:30:59;;;;;;;21.20;13.40;;;11.80;99.90;;;;;;5030512;28;20182;-63
2023/04/29 01:33:31;;;;;;;21.13;15.23;;;11.80;99.90;;;;;;5030743;28;20182;-64
2023/04/29 01:36:27;;;;;;;23.23;14.73;;;11.70;99.90;;;;;;5031107;28;20195;-64
2023/04/29 01:39:08;;;;;;;20.57;15.27;;;11.70;99.90;;;;;;5011396;28;20202;-63
2023/04/29 01:41:51;;;;;;;22.17;15.73;;;11.70;99.90;;;;;;5015022;28;20179;-64
2023/04/29 01:44:23;;;;;;;21.90;14.83;;;11.60;99.90;;;;;;5034264;28;20197;-64
2023/04/29 01:46:51;;;;;;;29.20;16.03;;;11.60;99.90;;;;;;5034731;28;20183;-64
2023/04/29 01:49:27;;;;;;;31.07;19.53;;;11.60;99.90;;;;;;5034423;28;20179;-64
2023/04/29 01:51:53;;;;;;;25.33;15.47;;;11.50;99.90;;;;;;5034627;28;20607;-64
2023/04/29 01:54:19;;;;;;;33.43;17.33;;;11.50;99.90;;;;;;5034980;28;20168;-64
2023/04/29 01:56:45;;;;;;;28.83;15.80;;;11.50;99.90;;;;;;5034342;28;20184;-64
2023/04/29 01:59:11;;;;;;;29.73;17.17;;;11.40;99.90;;;;;;5034543;28;20734;-63
2023/04/29 02:01:36;;;;;;;36.27;18.30;;;11.40;99.90;;;;;;5034270;28;20222;-64
2023/04/29 02:04:02;;;;;;;30.53;17.80;;;11.40;99.90;;;;;;5034183;28;20203;-64
2023/04/29 02:06:30;;;;;;;27.43;18.77;;;11.30;99.90;;;;;;5034516;28;20172;-64
2023/04/29 02:08:57;;;;;;;32.70;19.30;;;11.30;99.90;;;;;;5034363;28;20196;-64
2023/04/29 02:11:22;;;;;;;30.20;19.17;;;11.30;99.90;;;;;;5033776;28;20163;-64
2023/04/29 02:13:48;;;;;;;30.43;17.67;;;11.20;99.90;;;;;;5034427;28;20179;-64
2023/04/29 02:16:15;;;;;;;28.33;17.70;;;11.20;99.90;;;;;;5034056;28;20653;-64
2023/04/29 02:18:40;;;;;;;30.70;18.70;;;11.10;99.90;;;;;;5034761;28;20239;-68
2023/04/29 02:21:06;;;;;;;32.70;18.57;;;11.10;99.90;;;;;;5034094;28;20195;-69
2023/04/29 02:23:33;;;;;;;32.70;17.00;;;11.00;99.90;;;;;;5035906;28;20182;-71
2023/04/29 02:25:59;;;;;;;33.90;18.57;;;11.00;99.90;;;;;;5035209;28;20203;-68
2023/04/29 02:28:25;;;;;;;34.50;17.97;;;10.90;99.90;;;;;;5035380;28;20211;-67
2023/04/29 02:30:50;;;;;;;27.03;18.70;;;10.90;99.90;;;;;;5034904;28;20182;-68
2023/04/29 02:33:17;;;;;;;31.87;19.87;;;10.90;99.90;;;;;;5036070;28;20174;-70
2023/04/29 02:35:43;;;;;;;35.27;20.77;;;10.80;99.90;;;;;;5035214;28;20184;-68
2023/04/29 02:38:09;;;;;;;34.33;19.53;;;10.80;99.90;;;;;;5035472;28;20277;-67
2023/04/29 02:40:39;;;;;;;32.97;20.50;;;10.80;99.90;;;;;;5034774;28;20202;-67
2023/04/29 02:43:05;;;;;;;33.80;20.07;;;10.80;99.90;;;;;;5035494;28;20171;-67
2023/04/29 02:45:31;;;;;;;38.80;20.40;;;10.80;99.90;;;;;;5034947;28;20727;-68
2023/04/29 02:47:56;;;;;;;40.67;21.80;;;10.80;99.90;;;;;;5035567;28;20197;-70
2023/04/29 02:50:24;;;;;;;37.00;21.47;;;10.80;99.90;;;;;;5034783;28;20176;-71
2023/04/29 02:52:49;;;;;;;39.83;20.93;;;10.80;99.90;;;;;;5035340;28;20172;-69
2023/04/29 02:55:15;;;;;;;40.80;22.17;;;10.80;99.90;;;;;;5034899;28;20176;-68
2023/04/29 02:57:42;;;;;;;45.73;23.20;;;10.80;99.90;;;;;;5035186;28;20580;-70
2023/04/29 03:00:08;;;;;;;43.77;21.07;;;10.70;99.90;;;;;;5034211;28;20175;-67
2023/04/29 03:02:34;;;;;;;29.70;20.00;;;10.70;99.90;;;;;;5035102;28;20184;-71
2023/04/29 03:05:00;;;;;;;38.17;18.70;;;10.70;99.90;;;;;;5034979;28;20210;-69
2023/04/29 03:07:26;;;;;;;43.37;20.77;;;10.60;99.90;;;;;;5035318;28;20168;-68
2023/04/29 03:09:52;;;;;;;39.93;20.50;;;10.60;99.90;;;;;;5034614;28;20196;-68
2023/04/29 03:12:18;;;;;;;48.23;22.17;;;10.50;99.90;;;;;;5035543;28;20528;-69
2023/04/29 03:14:43;;;;;;;45.77;21.67;;;10.50;99.90;;;;;;5032906;28;20186;-69
2023/04/29 03:17:09;;;;;;;40.50;20.70;;;10.50;99.90;;;;;;5034674;28;20226;-68
2023/04/29 03:19:35;;;;;;;62.97;20.20;;;10.50;99.90;;;;;;5034493;28;20184;-68
2023/04/29 03:22:00;;;;;;;39.00;18.70;;;10.50;99.90;;;;;;5034514;28;20183;-68
2023/04/29 03:24:26;;;;;;;38.57;17.27;;;10.40;99.90;;;;;;5034788;28;20561;-69
2023/04/29 03:26:52;;;;;;;44.43;21.50;;;10.40;99.90;;;;;;5034439;28;20182;-71
2023/04/29 03:29:17;;;;;;;38.67;20.17;;;10.40;99.90;;;;;;5035042;28;20257;-69
2023/04/29 03:31:43;;;;;;;33.20;17.83;;;10.30;99.90;;;;;;5034614;28;20180;-69
2023/04/29 03:34:09;;;;;;;38.87;19.50;;;10.30;99.90;;;;;;5034797;28;20637;-68
2023/04/29 03:36:34;;;;;;;31.50;16.70;;;10.30;99.90;;;;;;5033350;28;20178;-66
2023/04/29 03:39:00;;;;;;;34.57;16.57;;;10.30;99.90;;;;;;5032068;28;20262;-69
2023/04/29 03:41:26;;;;;;;38.53;18.63;;;10.20;99.90;;;;;;5034126;28;20221;-67
2023/04/29 03:43:51;;;;;;;31.10;17.97;;;10.00;99.90;;;;;;5034770;28;20214;-68
2023/04/29 03:46:17;;;;;;;38.70;17.87;;;10.00;99.90;;;;;;5034162;28;20180;-66
2023/04/29 03:48:43;;;;;;;39.27;18.73;;;10.00;99.90;;;;;;5034247;28;20191;-66
2023/04/29 03:51:09;;;;;;;29.13;15.90;;;10.00;99.90;;;;;;5032582;28;20172;-70
2023/04/29 03:53:36;;;;;;;33.90;16.47;;;10.00;99.90;;;;;;5033955;28;20172;-67
2023/04/29 03:56:01;;;;;;;43.37;17.90;;;10.00;99.90;;;;;;5034110;28;20186;-68
2023/04/29 03:58:27;;;;;;;36.60;18.40;;;10.00;99.90;;;;;;5033774;28;20191;-69
2023/04/29 04:00:54;;;;;;;33.87;18.53;;;10.00;99.90;;;;;;5033692;28;20229;-69
2023/04/29 04:03:19;;;;;;;30.77;16.50;;;10.00;99.90;;;;;;5034190;28;20171;-67
2023/04/29 04:05:45;;;;;;;35.63;18.43;;;10.00;99.90;;;;;;5033176;28;20654;-66
2023/04/29 04:08:11;;;;;;;36.83;15.67;;;10.00;99.90;;;;;;5033558;28;20229;-69
2023/04/29 04:10:36;;;;;;;33.80;16.67;;;10.00;99.90;;;;;;5033021;28;20205;-68
2023/04/29 04:13:02;;;;;;;32.47;17.07;;;9.90;99.90;;;;;;5033933;28;20645;-66
2023/04/29 04:15:27;;;;;;;34.97;17.47;;;9.90;99.90;;;;;;5033219;28;20183;-67
2023/04/29 04:17:53;;;;;;;33.07;18.73;;;9.90;99.90;;;;;;5033789;28;20192;-68
2023/04/29 04:20:19;;;;;;;31.10;17.63;;;9.90;99.90;;;;;;5033002;28;20190;-69
2023/04/29 04:22:44;;;;;;;32.70;17.20;;;9.90;99.90;;;;;;5032651;28;20195;-68
2023/04/29 04:25:10;;;;;;;33.03;18.33;;;9.80;99.90;;;;;;5033862;28;20235;-68
2023/04/29 04:27:35;;;;;;;28.97;17.70;;;9.80;99.90;;;;;;5032136;28;20191;-66
2023/04/29 04:30:01;;;;;;;30.83;18.53;;;9.80;99.90;;;;;;5033166;28;20176;-69
2023/04/29 04:32:27;;;;;;;34.47;19.33;;;9.80;99.90;;;;;;5033542;28;20637;-68
2023/04/29 04:34:52;;;;;;;36.63;17.73;;;9.80;99.90;;;;;;5033558;28;20167;-68
2023/04/29 04:37:18;;;;;;;28.23;16.43;;;9.80;99.90;;;;;;5032522;28;20266;-67
2023/04/29 04:39:43;;;;;;;38.13;18.17;;;9.80;99.90;;;;;;5031680;28;20614;-68
2023/04/29 04:42:09;;;;;;;29.00;17.67;;;9.70;99.90;;;;;;5032805;28;20249;-69
2023/04/29 04:44:36;;;;;;;25.47;14.33;;;9.70;99.90;;;;;;5033678;28;20710;-68
2023/04/29 04:47:01;;;;;;;33.53;16.93;;;9.70;99.90;;;;;;5033155;28;20171;-67
2023/04/29 04:49:27;;;;;;;37.23;17.97;;;9.70;99.90;;;;;;5032931;28;20199;-67
2023/04/29 04:51:53;;;;;;;36.03;18.97;;;9.80;99.90;;;;;;5031900;28;20237;-67
2023/04/29 04:54:19;;;;;;;42.93;17.97;;;9.80;99.90;;;;;;5032953;28;20178;-66
2023/04/29 04:56:45;;;;;;;29.83;16.63;;;9.80;99.90;;;;;;5032309;28;20215;-68
2023/04/29 04:59:10;;;;;;;29.37;17.03;;;9.70;99.90;;;;;;5032544;28;20204;-66
2023/04/29 05:01:36;;;;;;;31.83;16.23;;;9.80;99.90;;;;;;5033187;28;20641;-69
2023/04/29 05:04:02;;;;;;;26.30;15.37;;;9.80;99.90;;;;;;5032654;28;20645;-67
2023/04/29 05:06:27;;;;;;;41.17;18.00;;;9.80;99.90;;;;;;5032945;28;20175;-67
2023/04/29 05:08:53;;;;;;;25.73;14.70;;;9.90;99.90;;;;;;5032721;28;20578;-69
2023/04/29 05:11:20;;;;;;;26.43;16.60;;;9.80;99.90;;;;;;5032726;28;20179;-68
2023/04/29 05:13:46;;;;;;;26.00;15.33;;;9.90;99.90;;;;;;5032534;28;20182;-64
2023/04/29 05:16:12;;;;;;;29.10;16.67;;;9.90;99.90;;;;;;5031013;28;20550;-64
2023/04/29 05:18:37;;;;;;;26.07;14.83;;;9.80;99.90;;;;;;5034873;28;20235;-64
2023/04/29 05:21:03;;;;;;;31.33;19.43;;;9.80;99.90;;;;;;5035370;28;20191;-63
2023/04/29 05:23:29;;;;;;;25.60;17.67;;;9.90;99.90;;;;;;5034097;28;20580;-63
2023/04/29 05:25:55;;;;;;;27.13;15.33;;;9.80;99.90;;;;;;5034461;28;20286;-63
2023/04/29 05:28:20;;;;;;;25.83;15.37;;;9.90;99.90;;;;;;5034076;28;20732;-63
2023/04/29 05:30:49;;;;;;;25.57;14.10;;;9.90;99.90;;;;;;5034130;28;20175;-63
2023/04/29 05:33:14;;;;;;;26.50;15.67;;;10.00;99.90;;;;;;5034152;28;20172;-64
2023/04/29 05:35:40;;;;;;;22.27;14.00;;;10.00;99.90;;;;;;5034276;28;20239;-64
2023/04/29 05:38:06;;;;;;;29.33;15.43;;;10.00;99.90;;;;;;5034879;28;20192;-63
2023/04/29 05:40:31;;;;;;;23.57;13.97;;;10.00;99.90;;;;;;5034679;28;20225;-64
2023/04/29 05:42:57;;;;;;;22.07;14.00;;;10.10;99.90;;;;;;5034967;28;20183;-63
2023/04/29 05:45:22;;;;;;;21.23;12.50;;;10.10;99.90;;;;;;5034703;28;20199;-64
2023/04/29 05:47:48;;;;;;;22.77;13.27;;;10.10;99.90;;;;;;5034572;28;20175;-64
2023/04/29 05:50:14;;;;;;;20.37;12.80;;;10.10;99.90;;;;;;5033931;28;20182;-64
2023/04/29 05:52:39;;;;;;;20.03;13.07;;;10.10;99.90;;;;;;5034404;28;20186;-63
2023/04/29 05:55:05;;;;;;;20.90;12.93;;;10.10;99.90;;;;;;5034272;28;20182;-64
2023/04/29 05:57:31;;;;;;;23.77;13.23;;;10.10;99.90;;;;;;5033332;28;20182;-64
2023/04/29 05:59:58;;;;;;;20.90;12.43;;;10.20;99.90;;;;;;5033378;28;20592;-64
2023/04/29 06:02:24;;;;;;;25.83;13.37;;;10.20;99.90;;;;;;5033607;28;20184;-64
2023/04/29 06:04:50;;;;;;;19.57;11.57;;;10.30;99.90;;;;;;5034420;28;20585;-61
2023/04/29 06:07:16;;;;;;;22.03;14.63;;;10.30;99.90;;;;;;5034458;28;20183;-63
2023/04/29 06:09:42;;;;;;;20.63;12.70;;;10.30;99.90;;;;;;5036068;28;20192;-64
2023/04/29 06:12:08;;;;;;;22.40;12.93;;;10.30;99.90;;;;;;5035232;28;20603;-64
2023/04/29 06:14:34;;;;;;;20.80;13.00;;;10.40;99.90;;;;;;5036853;28;20207;-63
2023/04/29 06:17:00;;;;;;;22.37;13.10;;;10.40;99.90;;;;;;5036221;28;20657;-63
2023/04/29 06:19:26;;;;;;;25.60;14.23;;;10.50;99.90;;;;;;5037010;28;20183;-63
2023/04/29 06:21:52;;;;;;;20.37;12.87;;;10.50;99.90;;;;;;5037534;28;20262;-63
2023/04/29 06:24:17;;;;;;;21.50;12.20;;;10.50;99.90;;;;;;5037678;28;20206;-63
2023/04/29 06:26:43;;;;;;;24.03;13.93;;;10.60;99.90;;;;;;5036730;28;20663;-64
2023/04/29 06:29:09;;;;;;;19.00;13.50;;;10.60;99.90;;;;;;5033913;28;20207;-63
2023/04/29 06:31:34;;;;;;;18.67;13.30;;;10.60;99.90;;;;;;5033671;28;20254;-64
2023/04/29 06:34:00;;;;;;;25.27;13.53;;;10.70;99.90;;;;;;5034248;28;20652;-64
2023/04/29 06:36:26;;;;;;;24.17;13.87;;;10.70;99.90;;;;;;5033693;28;20175;-64
2023/04/29 06:38:52;;;;;;;24.83;14.87;;;10.70;99.90;;;;;;5033996;28;20283;-63
2023/04/29 06:41:17;;;;;;;28.23;14.67;;;10.70;99.90;;;;;;5033379;28;20175;-64
2023/04/29 06:43:43;;;;;;;19.20;13.63;;;10.70;99.90;;;;;;5033320;28;20175;-64
2023/04/29 06:46:09;;;;;;;22.63;13.97;;;10.90;99.90;;;;;;5033098;28;20669;-64
2023/04/29 06:48:35;;;;;;;22.57;13.70;;;10.90;99.90;;;;;;5033040;28;20207;-64
2023/04/29 06:51:01;;;;;;;16.60;13.97;;;10.90;99.90;;;;;;5033461;28;20234;-64
2023/04/29 06:53:27;;;;;;;19.33;11.90;;;11.00;99.90;;;;;;5033415;28;20180;-64
2023/04/29 06:55:52;;;;;;;22.70;14.50;;;11.10;99.90;;;;;;5033777;28;20180;-64
2023/04/29 06:58:18;;;;;;;19.93;14.03;;;11.20;99.90;;;;;;5033414;28;20240;-64
2023/04/29 07:00:49;;;;;;;23.00;14.60;;;11.40;99.90;;;;;;5033091;28;20226;-64
2023/04/29 07:03:16;;;;;;;21.43;12.90;;;11.50;99.90;;;;;;5035194;28;20233;-64
2023/04/29 07:05:44;;;;;;;19.90;13.37;;;11.60;99.90;;;;;;5034802;28;20692;-64
2023/04/29 07:08:11;;;;;;;25.57;14.63;;;11.70;99.90;;;;;;5032530;28;20183;-64
2023/04/29 07:10:37;;;;;;;24.40;13.67;;;11.90;99.90;;;;;;5033017;28;20164;-63
2023/04/29 07:13:03;;;;;;;17.90;12.73;;;12.00;99.90;;;;;;5033473;28;20243;-63
2023/04/29 07:15:33;;;;;;;17.40;12.47;;;12.10;99.90;;;;;;5033381;28;20696;-63
2023/04/29 07:18:01;;;;;;;18.27;12.13;;;12.10;99.90;;;;;;5034207;28;20191;-63
2023/04/29 07:20:27;;;;;;;16.57;12.67;;;12.20;99.90;;;;;;5033641;28;20254;-63
2023/04/29 07:22:53;;;;;;;19.10;13.13;;;12.30;99.90;;;;;;5034207;28;20214;-64
2023/04/29 07:25:18;;;;;;;16.43;12.10;;;12.30;99.90;;;;;;5034106;28;20246;-63
2023/04/29 07:27:44;;;;;;;16.63;11.20;;;12.40;99.90;;;;;;5033038;28;20199;-63
2023/04/29 07:30:10;;;;;;;16.53;11.70;;;12.40;99.90;;;;;;5032580;28;20707;-64
2023/04/29 07:32:36;;;;;;;16.53;11.77;;;12.40;99.90;;;;;;5031763;28;20672;-63
2023/04/29 07:35:02;;;;;;;14.47;11.67;;;12.50;99.90;;;;;;5031721;28;20175;-63
2023/04/29 07:37:27;;;;;;;13.13;10.00;;;12.50;99.90;;;;;;5015922;28;20180;-63
2023/04/29 07:39:53;;;;;;;12.73;9.77;;;12.50;99.90;;;;;;5012123;28;20200;-64
2023/04/29 07:42:19;;;;;;;13.90;10.67;;;12.40;99.90;;;;;;5012485;28;20242;-63
2023/04/29 07:44:44;;;;;;;15.83;11.23;;;12.40;99.90;;;;;;5012785;28;20200;-64
2023/04/29 07:47:11;;;;;;;11.70;9.73;;;12.20;99.90;;;;;;5012948;28;20175;-63
2023/04/29 07:49:37;;;;;;;11.87;10.17;;;12.10;99.90;;;;;;5025927;28;20299;-64
2023/04/29 07:52:04;;;;;;;13.30;9.67;;;12.00;99.90;;;;;;5031295;28;20262;-64
2023/04/29 07:54:29;;;;;;;13.13;9.70;;;12.00;99.90;;;;;;5032194;28;20179;-64
2023/04/29 07:56:57;;;;;;;13.53;10.97;;;12.10;99.90;;;;;;5032536;28;20176;-64
2023/04/29 07:59:23;;;;;;;11.70;10.50;;;12.00;99.90;;;;;;5031851;28;20195;-64
2023/04/29 08:01:48;;;;;;;12.20;10.17;;;11.90;99.90;;;;;;5032311;28;20180;-63
2023/04/29 08:04:14;;;;;;;13.70;12.33;;;11.80;99.90;;;;;;5032188;28;20203;-64
2023/04/29 08:06:40;;;;;;;11.93;10.73;;;11.80;99.90;;;;;;5031329;28;20250;-63
2023/04/29 08:09:06;;;;;;;14.67;11.50;;;11.70;99.90;;;;;;5031785;28;20280;-64
2023/04/29 08:11:32;;;;;;;15.90;14.37;;;11.60;99.90;;;;;;5031349;28;20175;-64
2023/04/29 08:13:59;;;;;;;13.80;12.40;;;11.60;99.90;;;;;;5032139;28;20172;-64
2023/04/29 08:16:25;;;;;;;16.40;15.10;;;11.70;99.90;;;;;;5031427;28;20172;-63
2023/04/29 08:18:51;;;;;;;17.40;15.97;;;11.60;99.90;;;;;;5031966;28;20713;-63
2023/04/29 08:21:18;;;;;;;17.17;15.00;;;11.50;99.90;;;;;;5031410;28;20267;-64
2023/04/29 08:23:44;;;;;;;13.53;12.13;;;11.50;99.90;;;;;;5031695;28;20167;-64
2023/04/29 08:26:11;;;;;;;13.50;12.30;;;11.60;99.90;;;;;;5031876;28;20210;-63
2023/04/29 08:28:37;;;;;;;16.63;15.23;;;11.70;99.90;;;;;;5031096;28;20218;-63
2023/04/29 08:31:05;;;;;;;14.23;12.73;;;11.80;99.90;;;;;;5029763;28;20179;-64
2023/04/29 08:33:34;;;;;;;14.03;12.63;;;12.00;99.90;;;;;;5030565;28;20660;-62
2023/04/29 08:36:02;;;;;;;11.87;10.53;;;12.10;99.90;;;;;;5031717;28;20175;-63
2023/04/29 08:38:28;;;;;;;10.30;9.30;;;12.10;99.90;;;;;;5031343;28;20199;-63
2023/04/29 08:40:53;;;;;;;12.97;8.57;;;12.30;99.90;;;;;;5030723;28;20191;-63
2023/04/29 08:43:20;;;;;;;9.83;8.83;;;12.40;99.90;;;;;;5031490;28;20266;-63
2023/04/29 08:45:47;;;;;;;11.87;8.83;;;12.50;99.90;;;;;;5031271;28;20267;-64
2023/04/29 08:48:14;;;;;;;13.60;9.83;;;12.60;99.90;;;;;;5031643;28;20234;-64
2023/04/29 08:50:41;;;;;;;9.73;8.73;;;12.70;99.90;;;;;;5030916;28;20270;-63
2023/04/29 08:53:08;;;;;;;10.20;9.10;;;13.00;99.90;;;;;;5031435;28;20246;-63
2023/04/29 08:55:35;;;;;;;9.37;8.33;;;13.10;99.90;;;;;;5031091;28;20524;-63
2023/04/29 08:58:02;;;;;;;9.43;7.87;;;13.30;99.90;;;;;;5031305;28;20274;-63
2023/04/29 09:00:29;;;;;;;9.87;7.63;;;13.40;99.90;;;;;;5031039;28;20664;-63
2023/04/29 09:02:57;;;;;;;9.07;8.17;;;13.70;99.90;;;;;;5031427;28;20193;-64
2023/04/29 09:05:24;;;;;;;9.07;8.17;;;13.70;99.90;;;;;;5031188;28;20238;-66
2023/04/29 09:07:51;;;;;;;10.30;8.23;;;13.80;99.90;;;;;;5031369;28;20171;-63
2023/04/29 09:10:17;;;;;;;8.77;7.87;;;14.10;99.90;;;;;;5030776;28;20240;-64
2023/04/29 09:12:45;;;;;;;10.27;8.73;;;14.40;99.90;;;;;;5031236;28;20187;-63
2023/04/29 09:15:10;;;;;;;9.33;7.87;;;14.40;99.90;;;;;;5031085;28;20178;-63
2023/04/29 09:17:54;;;;;;;9.53;8.63;;;14.40;99.90;;;;;;5031066;28;20175;-65
2023/04/29 09:20:20;;;;;;;9.87;8.67;;;14.20;99.90;;;;;;5030642;28;20183;-64
2023/04/29 09:22:56;;;;;;;10.07;7.77;;;14.10;99.90;;;;;;5029926;28;20663;-64
2023/04/29 09:25:22;;;;;;;8.73;7.20;;;14.20;99.90;;;;;;5031044;28;20207;-64
2023/04/29 09:27:48;;;;;;;9.00;8.10;;;14.20;99.90;;;;;;5031028;28;20191;-65
2023/04/29 09:30:15;;;;;;;9.00;8.10;;;14.10;99.90;;;;;;5031389;28;20586;-64
2023/04/29 09:32:41;;;;;;;9.87;7.63;;;14.00;99.90;;;;;;5031259;28;20458;-64
2023/04/29 09:35:39;;;;;;;8.77;7.87;;;14.00;99.90;;;;;;5030920;28;20175;-64
2023/04/29 09:38:13;;;;;;;8.83;7.90;;;13.80;99.90;;;;;;5030634;28;20602;-64
2023/04/29 09:40:40;;;;;;;11.20;7.93;;;13.60;99.90;;;;;;5030392;28;20188;-66
2023/04/29 09:43:17;;;;;;;12.97;8.47;;;13.40;99.90;;;;;;5031211;28;20207;-64
2023/04/29 09:45:47;;;;;;;9.67;7.93;;;13.20;99.90;;;;;;5030742;28;20202;-62
2023/04/29 09:48:14;;;;;;;9.97;8.03;;;13.10;99.90;;;;;;5031253;28;20193;-63
2023/04/29 09:50:42;;;;;;;9.30;8.50;;;13.00;99.90;;;;;;5029741;28;20179;-63
2023/04/29 09:53:10;;;;;;;10.00;9.03;;;13.00;99.90;;;;;;5031004;28;20176;-63
2023/04/29 09:55:56;;;;;;;10.07;9.03;;;12.90;99.90;;;;;;5030700;28;20179;-63
2023/04/29 09:58:30;;;;;;;9.77;8.53;;;12.80;99.90;;;;;;5030991;28;20657;-64
2023/04/29 10:01:00;;;;;;;10.70;8.33;;;12.80;99.90;;;;;;5030700;28;20178;-63
2023/04/29 10:03:33;;;;;;;9.87;8.87;;;12.70;99.90;;;;;;5031759;28;20172;-64
2023/04/29 10:06:01;;;;;;;12.30;10.37;;;12.70;99.90;;;;;;5034364;28;20203;-66
2023/04/29 10:08:28;;;;;;;13.63;10.27;;;12.70;99.90;;;;;;5034457;28;20238;-66
2023/04/29 10:10:59;;;;;;;10.43;9.37;;;12.60;99.90;;;;;;5034147;28;20186;-64
2023/04/29 10:13:27;;;;;;;13.23;11.33;;;12.50;99.90;;;;;;5034582;28;20179;-66
2023/04/29 10:16:08;;;;;;;10.63;8.97;;;12.30;99.90;;;;;;5034182;28;20215;-66
2023/04/29 10:18:39;;;;;;;9.80;8.67;;;12.20;99.90;;;;;;5034274;28;20188;-65
2023/04/29 10:21:08;;;;;;;16.47;11.70;;;12.20;99.90;;;;;;5034147;28;20171;-64
2023/04/29 10:23:35;;;;;;;13.50;10.63;;;12.10;99.90;;;;;;5034309;28;20606;-64
2023/04/29 10:26:02;;;;;;;13.53;12.13;;;12.10;99.90;;;;;;5033974;28;20290;-66
2023/04/29 10:28:31;;;;;;;17.70;10.10;;;12.10;99.90;;;;;;5033779;28;20211;-63
2023/04/29 10:31:02;;;;;;;14.47;9.77;;;12.10;99.90;;;;;;5034019;28;20168;-62
2023/04/29 10:33:31;;;;;;;15.70;11.33;;;12.10;99.90;;;;;;5032513;28;20167;-63
2023/04/29 10:35:57;;;;;;;15.57;11.17;;;12.10;99.90;;;;;;5034184;28;20172;-64
2023/04/29 10:38:35;;;;;;;14.77;12.07;;;12.20;99.90;;;;;;5033763;28;20188;-64
2023/04/29 10:41:06;;;;;;;15.23;10.93;;;12.30;99.90;;;;;;5033887;28;20250;-64
2023/04/29 10:43:31;;;;;;;15.50;11.37;;;12.40;99.90;;;;;;5033638;28;20556;-63
2023/04/29 10:46:15;;;;;;;14.67;10.80;;;12.40;99.90;;;;;;5033960;28;20226;-64
2023/04/29 10:48:49;;;;;;;16.00;11.00;;;12.50;99.90;;;;;;5033458;28;20207;-66
2023/04/29 10:51:34;;;;;;;13.17;10.50;;;12.50;99.90;;;;;;5033576;28;20203;-64
2023/04/29 10:54:02;;;;;;;18.60;12.47;;;12.40;99.90;;;;;;5033710;28;20663;-64
2023/04/29 10:56:42;;;;;;;20.47;12.90;;;12.30;99.90;;;;;;5033723;28;20255;-64
2023/04/29 10:59:13;;;;;;;18.97;12.37;;;12.40;99.90;;;;;;5033210;28;20550;-65
2023/04/29 11:01:49;;;;;;;16.13;11.37;;;12.40;99.90;;;;;;5033257;28;20613;-64
2023/04/29 11:04:18;;;;;;;18.50;12.13;;;12.40;99.90;;;;;;5033375;28;20172;-64
2023/04/29 11:06:46;;;;;;;17.77;12.30;;;12.50;99.90;;;;;;5033843;28;20171;-63
2023/04/29 11:09:19;;;;;;;17.40;12.27;;;12.60;99.90;;;;;;5032928;28;20612;-63
2023/04/29 11:11:53;;;;;;;19.57;13.33;;;12.60;99.90;;;;;;5033450;28;20199;-64
2023/04/29 11:14:25;;;;;;;21.13;14.03;;;12.70;99.90;;;;;;5031493;28;20167;-64
2023/04/29 11:16:54;;;;;;;19.27;13.90;;;12.70;99.90;;;;;;5033474;28;20172;-64
2023/04/29 11:19:23;;;;;;;19.80;13.83;;;12.90;99.90;;;;;;5032724;28;20212;-64
2023/04/29 11:22:12;;;;;;;21.03;15.73;;;12.90;99.90;;;;;;5033345;28;20171;-65
2023/04/29 11:25:01;;;;;;;20.47;15.03;;;12.80;99.90;;;;;;5031990;28;20191;-64
2023/04/29 11:27:33;;;;;;;25.47;16.23;;;12.70;99.90;;;;;;5032796;28;20605;-63
2023/04/29 11:30:02;;;;;;;25.57;17.10;;;12.70;99.90;;;;;;5031163;28;20237;-66
2023/04/29 11:32:30;;;;;;;19.57;16.50;;;12.70;99.90;;;;;;5032607;28;20183;-63
2023/04/29 11:35:10;;;;;;;21.50;17.23;;;12.70;99.90;;;;;;5033049;28;20179;-64
2023/04/29 11:37:37;;;;;;;28.73;17.43;;;12.70;99.90;;;;;;5032810;28;20661;-63
2023/04/29 11:40:04;;;;;;;35.40;23.30;;;12.90;99.90;;;;;;5032356;28;20179;-66
2023/04/29 11:42:29;;;;;;;42.30;24.20;;;13.00;99.90;;;;;;5032548;28;20262;-64
2023/04/29 11:44:59;;;;;;;41.07;24.57;;;13.00;99.90;;;;;;5032568;28;20289;-62
2023/04/29 11:47:28;;;;;;;41.13;23.93;;;13.10;99.90;;;;;;5032585;28;20164;-63
2023/04/29 11:50:06;;;;;;;36.30;22.33;;;13.20;99.90;;;;;;5032648;28;20263;-63
2023/04/29 11:52:33;;;;;;;37.93;22.90;;;13.30;99.90;;;;;;5032755;28;20221;-63
2023/04/29 11:54:59;;;;;;;37.50;21.93;;;13.40;99.90;;;;;;5032500;28;20249;-63
2023/04/29 11:57:25;;;;;;;37.57;21.20;;;13.60;99.90;;;;;;5032604;28;20657;-63
2023/04/29 11:59:52;;;;;;;32.17;19.73;;;13.60;99.90;;;;;;5030849;28;20239;-63
2023/04/29 12:02:21;;;;;;;38.43;21.53;;;13.70;99.90;;;;;;5032348;28;20175;-63
2023/04/29 12:04:46;;;;;;;31.57;19.23;;;13.90;99.90;;;;;;5031959;28;20207;-63
2023/04/29 12:07:16;;;;;;;32.23;20.43;;;14.10;99.90;;;;;;5032011;28;20164;-62
2023/04/29 12:09:45;;;;;;;35.73;21.57;;;14.20;99.90;;;;;;5031652;28;20210;-63
2023/04/29 12:12:12;;;;;;;33.90;20.43;;;14.30;99.90;;;;;;5031929;28;20179;-63
2023/04/29 12:14:40;;;;;;;36.67;20.77;;;14.40;99.90;;;;;;5031860;28;20167;-62
2023/04/29 12:17:06;;;;;;;36.17;20.63;;;14.60;99.90;;;;;;5031847;28;20263;-63
2023/04/29 12:19:32;;;;;;;32.03;19.07;;;14.90;99.90;;;;;;5031622;28;20283;-63
2023/04/29 12:22:02;;;;;;;33.07;21.13;;;15.10;99.90;;;;;;5031875;28;20709;-64
2023/04/29 12:24:28;;;;;;;37.10;21.40;;;15.30;99.90;;;;;;5031905;28;20254;-63
2023/04/29 12:26:58;;;;;;;35.53;22.07;;;15.50;99.90;;;;;;5031020;28;20191;-63
2023/04/29 12:29:25;;;;;;;32.43;19.77;;;15.90;99.90;;;;;;5031497;28;20215;-63
2023/04/29 12:31:51;;;;;;;30.57;18.53;;;16.00;99.90;;;;;;5031470;28;20180;-63
2023/04/29 12:34:23;;;;;;;32.47;18.00;;;16.10;99.90;;;;;;5031878;28;20263;-63